Insider Trading activities of Kinetic Concepts Inc /tx/ insiders.

Monthly summaries of insider trading activities (stock purchases, sales, and option exercises) reported by insiders of Kinetic Concepts Inc /tx/ since 2005 are illustrated in Table 1 and Table 2. Table 1 shows the monthly insider trading data of Kinetic Concepts Inc /tx/ since year 2005. Table 2 shows the detailed insider transactions of Kinetic Concepts Inc /tx/ since 2005. The reporting company's ticker symbol is KCI. The reporting company's CIK number is 831967.
The total value of stock buying since 2005 is $1,473,361.
The total value of stock sales since 2005 is $266,015,498.
The total value of stock option exercises since 2005 is $24,742,471.


Table 1. Monthly summaries of insider stock purchases, sales, and option exercises for Kinetic Concepts Inc /tx/ (KCI).
Trading Period Insider Buying Insider Sales Option Exercises
year-month Shares Value Shares Value Shares Value
2011-10 0 $0 0 $0 809 $49,980
2011-08 0 $0 0 $0 530 $0
2011-04 0 $0 9,000 $531,000 9,000 $351,090
2011-03 0 $0 25,000 $1,350,000 25,000 $849,750
2011-02 0 $0 21,188 $989,903 21,188 $525,038
2011-01 0 $0 546 $24,570 0 $0
2010-12 0 $0 291,900 $12,061,832 0 $0
2010-11 0 $0 55,500 $2,228,280 0 $0
2010-05 0 $0 10,000 $418,650 17,941 $199,997
2010-04 0 $0 10,000 $446,699 10,000 $100,000
2010-03 0 $0 21,188 $1,112,370 21,188 $525,038
2010-02 0 $0 36,000 $1,482,480 50,000 $500,000
2009-11 0 $0 35,000 $1,159,550 60,000 $600,000
2009-10 1,000 $23,870 5,000 $171,300 5,000 $50,000
2009-09 0 $0 20,000 $700,000 20,000 $200,000
2009-07 0 $0 20,000 $600,000 20,000 $200,000
2009-06 0 $0 10,000 $270,000 10,000 $100,000
2009-05 828 $21,254 0 $0 0 $0
2009-04 0 $0 20,000 $485,600 20,000 $140,000
2008-10 55,675 $1,125,481 0 $0 0 $0
2008-07 1,875 $69,356 0 $0 0 $0
2008-05 0 $0 1,342 $58,377 1,000 $4,810
2008-04 0 $0 10,000 $500,000 10,000 $339,900
2008-01 0 $0 10,000 $524,200 10,000 $339,900
2007-12 0 $0 10,000 $538,200 10,000 $339,900
2007-11 0 $0 1,224,472 $73,707,033 5,000 $169,950
2007-10 0 $0 81,285 $4,907,199 15,485 $325,817
2007-09 0 $0 18,668 $1,066,679 18,000 $241,079
2007-08 0 $0 305,200 $18,581,220 0 $0
2007-07 0 $0 194,800 $12,357,186 0 $0
2007-05 0 $0 675,039 $33,246,621 50,000 $500,000
2007-04 0 $0 40,000 $2,188,800 71,867 $345,680
2007-02 0 $0 488,364 $24,314,425 30,000 $255,000
2006-12 0 $0 170,000 $6,093,500 170,000 $921,499
2006-11 0 $0 730,000 $25,334,972 330,000 $1,742,999
2006-10 0 $0 135,000 $4,691,600 651,874 $3,135,513
2006-08 5,000 $139,300 324,423 $10,094,089 1,050,000 $5,050,499
2006-05 0 $0 19,325 $792,684 40,000 $266,199
2006-04 0 $0 200,000 $8,231,999 200,000 $961,999
2006-02 0 $0 204,000 $7,772,000 1,111,255 $5,410,834
2005-11 2,500 $94,100 0 $0 0 $0
2005-08 0 $0 125,600 $6,982,480 0 $0

Table 2. Detailed insider stock purchases, sales, and option exercises of Kinetic Concepts Inc /tx/ insiders (KCI)
  Trade Date   Insider Name Trade Type     Shares       Price ($)   Value ($)
2011-10-03 Leininger James R Md Option Ex 809 61.78 49,980
2011-08-24 Kohrt Carl F Option Ex 53 .00 0
2011-08-24 Grossman Woodrin Option Ex 53 .00 0
2011-08-24 Jacobson Harry R Option Ex 53 .00 0
2011-08-24 Simpson David J Option Ex 53 .00 0
2011-08-24 Smith Tom Option Ex 53 .00 0
2011-08-24 Callen Craig R Option Ex 53 .00 0
2011-08-24 Dollens Ronald W (Chairman of the Board) Option Ex 106 .00 0
2011-08-24 Steen Donald E Option Ex 53 .00 0
2011-08-24 Leininger James R Md Option Ex 53 .00 0
2011-04-29 Seidel Stephen D (Global President,TSS) Sale 9,000 59.00 531,000
2011-04-29 Seidel Stephen D (Global President,TSS) Option Ex 9,000 39.01 351,090
2011-03-30 Seidel Stephen D (Global President,TSS; GC) Sale 25,000 54.00 1,350,000
2011-03-30 Seidel Stephen D (Global President,TSS; GC) Option Ex 25,000 33.99 849,750
2011-02-22 Seidel Stephen D (Global President,TSS; GC) Sale 21,188 46.72 989,903
2011-02-22 Seidel Stephen D (Global President,TSS; GC) Option Ex 21,188 24.78 525,038
2011-01-10 Seidel Stephen D (Global President,TSS; GC) Sale 546 45.00 24,570
2010-12-31 Leininger James R Md Sale 13,500 41.96 566,460
2010-12-30 Leininger James R Md Sale 5,600 41.77 233,912
2010-12-29 Leininger James R Md Sale 9,400 41.73 392,261
2010-12-28 Leininger James R Md Sale 5,000 41.76 208,800
2010-12-27 Leininger James R Md Sale 5,400 41.84 225,936
2010-12-23 Leininger James R Md Sale 7,200 41.92 301,824
2010-12-22 Leininger James R Md Sale 7,200 41.79 300,888
2010-12-21 Leininger James R Md Sale 7,476 41.73 311,973
2010-12-20 Leininger James R Md Sale 15,249 41.51 632,985
2010-12-17 Leininger James R Md Sale 22,475 41.28 927,768
2010-12-16 Leininger James R Md Sale 17,200 41.59 715,348
2010-12-15 Leininger James R Md Sale 11,152 41.87 466,934
2010-12-14 Leininger James R Md Sale 12,400 41.82 518,568
2010-12-13 Leininger James R Md Sale 17,631 41.55 732,568
2010-12-10 Leininger James R Md Sale 13,317 41.22 548,926
2010-12-09 Leininger James R Md Sale 9,485 41.02 389,074
2010-12-08 Leininger James R Md Sale 8,515 41.04 349,455
2010-12-07 Leininger James R Md Sale 17,200 41.40 712,080
2010-12-06 Leininger James R Md Sale 15,200 41.32 628,064
2010-12-03 Leininger James R Md Sale 26,200 40.92 1,072,104
2010-12-02 Leininger James R Md Sale 24,500 40.44 990,780
2010-12-01 Leininger James R Md Sale 20,600 40.54 835,124
2010-11-22 Leininger James R Md Sale 2,200 40.06 88,132
2010-11-19 Leininger James R Md Sale 3,600 40.03 144,108
2010-11-15 Leininger James R Md Sale 2,000 40.00 80,000
2010-11-12 Leininger James R Md Sale 6,010 40.13 241,181
2010-11-11 Leininger James R Md Sale 10,790 40.21 433,865
2010-11-10 Leininger James R Md Sale 1,000 40.01 40,010
2010-11-09 Leininger James R Md Sale 11,600 40.25 466,900
2010-11-08 Leininger James R Md Sale 11,200 40.11 449,232
2010-11-05 Leininger James R Md Sale 7,100 40.12 284,852
2010-05-26 Simpson David J Option Ex 5,000 10.00 50,000
2010-05-20 Jacobson Harry R Sale 5,000 41.71 208,550
2010-05-20 Jacobson Harry R Option Ex 5,000 10.00 50,000
2010-05-11 Smith Tom Sale 5,000 42.02 210,100
2010-05-11 Smith Tom Option Ex 5,000 10.00 50,000
2010-05-07 Leininger James R Md Option Ex 2,941 17.00 49,997
2010-04-29 Dollens Ronald W (Chairman of the Board) Sale 5,000 44.73 223,649
2010-04-29 Dollens Ronald W (Chairman of the Board) Option Ex 5,000 10.00 50,000
2010-04-29 Byrnes John P Sale 5,000 44.61 223,050
2010-04-29 Byrnes John P Option Ex 5,000 10.00 50,000
2010-03-10 Seidel Stephen D (Global President,TSS; GC) Sale 21,188 52.50 1,112,370
2010-03-10 Seidel Stephen D (Global President,TSS; GC) Option Ex 21,188 24.78 525,038
2010-02-01 Landon Martin J (Exec Vice President and CFO) Sale 36,000 41.18 1,482,480
2010-02-01 Landon Martin J (Exec Vice President and CFO) Option Ex 50,000 10.00 500,000
2009-11-20 Landon Martin J (Exec Vice President and CFO) Sale 35,000 33.13 1,159,550
2009-11-20 Landon Martin J (Exec Vice President and CFO) Option Ex 60,000 10.00 600,000
2009-10-30 Grossman Woodrin Buy 1,000 23.87 23,870
2009-10-26 Steen Donald E Sale 5,000 34.26 171,300
2009-10-26 Steen Donald E Option Ex 5,000 10.00 50,000
2009-09-09 Landon Martin J (Exec Vice President and CFO) Sale 20,000 35.00 700,000
2009-09-09 Landon Martin J (Exec Vice President and CFO) Option Ex 20,000 10.00 200,000
2009-07-22 Landon Martin J (Exec Vice President and CFO) Sale 20,000 30.00 600,000
2009-07-22 Landon Martin J (Exec Vice President and CFO) Option Ex 20,000 10.00 200,000
2009-06-02 Landon Martin J (Exec Vice President and CFO) Sale 10,000 27.00 270,000
2009-06-02 Landon Martin J (Exec Vice President and CFO) Option Ex 10,000 10.00 100,000
2009-05-26 Kohrt Carl F Buy 828 25.67 21,254
2009-04-30 Landon Martin J (Exec Vice President and CFO) Sale 20,000 24.28 485,600
2009-04-30 Landon Martin J (Exec Vice President and CFO) Option Ex 20,000 7.00 140,000
2008-10-29 Grossman Woodrin Buy 1,000 23.60 23,600
2008-10-24 Burzik Catherine M (President and CEO) Buy 20,000 20.10 402,000
2008-10-24 Dollens Ronald W (Chairman of the Board) Buy 24,675 20.21 498,681
2008-10-24 Steen Donald E Buy 10,000 20.12 201,200
2008-07-29 Sly Lynne (Pres., Global Thera. Sup. Sys.) Buy 1,875 36.99 69,356
2008-05-30 Kashyap Rohit (Sr. VP, Corp. Development) Sale 1,342 43.50 58,377
2008-05-30 Kashyap Rohit (Sr. VP, Corp. Development) Option Ex 1,000 4.81 4,810
2008-04-07 Burzik Catherine M (President and CEO) Sale 10,000 50.00 500,000
2008-04-07 Burzik Catherine M (President and CEO) Option Ex 10,000 33.99 339,900
2008-01-02 Burzik Catherine M (President and CEO) Sale 10,000 52.42 524,200
2008-01-02 Burzik Catherine M (President and CEO) Option Ex 10,000 33.99 339,900
2007-12-28 Burzik Catherine M (President and CEO) Sale 10,000 53.82 538,200
2007-12-28 Burzik Catherine M (President and CEO) Option Ex 10,000 33.99 339,900
2007-11-30 Leininger James R Md Sale 32,000 58.37 1,867,840
2007-11-29 Leininger James R Md Sale 68,000 58.93 4,007,240
2007-11-28 Leininger James R Md Sale 200,000 59.49 11,898,000
2007-11-27 Leininger James R Md Sale 150,000 59.27 8,890,500
2007-11-21 Leininger James R Md Sale 52,300 59.02 3,086,746
2007-11-19 Leininger James R Md Sale 400 60.00 24,000
2007-11-16 Leininger James R Md Sale 2,800 60.00 168,000
2007-11-15 Leininger James R Md Sale 50,400 60.13 3,030,552
2007-11-14 Leininger James R Md Sale 100,000 60.28 6,028,000
2007-11-13 Leininger James R Md Sale 75,000 60.03 4,502,250
2007-11-09 Leininger James R Md Sale 13,300 60.69 807,177
2007-11-08 Leininger James R Md Sale 50,000 60.19 3,009,500
2007-11-07 Leininger James R Md Sale 75,000 61.60 4,620,000
2007-11-06 Seidel Stephen D (V.P., Gen. Counsel and Sec.) Sale 5,272 61.50 324,228
2007-11-06 Seidel Stephen D (V.P., Gen. Counsel and Sec.) Option Ex 5,000 33.99 169,950
2007-11-06 Leininger James R Md Sale 100,000 61.87 6,187,000
2007-11-05 Leininger James R Md Sale 150,000 61.20 9,180,000
2007-11-02 Leininger James R Md Sale 100,000 60.76 6,076,000
2007-10-31 Leininger James R Md Sale 33,400 60.03 2,005,002
2007-10-29 Leininger James R Md Sale 32,400 60.70 1,966,680
2007-10-05 Seidel Stephen D (V.P., Gen. Counsel and Sec.) Sale 5,485 61.17 335,517
2007-10-05 Seidel Stephen D (V.P., Gen. Counsel and Sec.) Option Ex 5,485 41.17 225,817
2007-10-04 Landon Martin J (Senior Vice President and CFO) Sale 10,000 60.00 600,000
2007-10-04 Landon Martin J (Senior Vice President and CFO) Option Ex 10,000 10.00 100,000
2007-09-28 Landon Martin J (Senior Vice President and CFO) Sale 10,000 56.14 561,400
2007-09-28 Landon Martin J (Senior Vice President and CFO) Option Ex 10,000 10.00 100,000
2007-09-17 Sly Lynne (President, Thera. Surfaces) Sale 5,000 58.10 290,500
2007-09-17 Sly Lynne (President, Thera. Surfaces) Option Ex 5,000 4.81 24,049
2007-09-17 Seidel Stephen D (V.P., Gen. Counsel and Sec.) Sale 3,668 58.56 214,779
2007-09-17 Seidel Stephen D (V.P., Gen. Counsel and Sec.) Option Ex 3,000 39.01 117,030
2007-08-31 Leininger James R Md Sale 61,578 59.81 3,682,980
2007-08-30 Leininger James R Md Sale 18,800 59.26 1,114,088
2007-08-29 Leininger James R Md Sale 50,000 60.09 3,004,500
2007-08-28 Leininger James R Md Sale 8,400 61.19 513,996
2007-08-27 Leininger James R Md Sale 25,000 62.50 1,562,500
2007-08-24 Leininger James R Md Sale 25,000 61.52 1,538,000
2007-08-23 Leininger James R Md Sale 50,000 61.60 3,080,000
2007-08-03 Leininger James R Md Sale 16,422 61.01 1,001,906
2007-08-02 Leininger James R Md Sale 25,000 61.19 1,529,750
2007-08-01 Leininger James R Md Sale 25,000 62.14 1,553,500
2007-07-31 Leininger James R Md Sale 16,300 63.44 1,034,072
2007-07-30 Leininger James R Md Sale 25,000 62.57 1,564,250
2007-07-25 Leininger James R Md Sale 69,200 63.01 4,360,292
2007-07-24 Leininger James R Md Sale 84,300 64.04 5,398,572
2007-05-25 Leininger James R Md Sale 406,339 49.22 20,000,005
2007-05-21 Landon Martin J (Senior Vice President and CFO) Sale 50,000 49.18 2,459,000
2007-05-21 Landon Martin J (Senior Vice President and CFO) Option Ex 50,000 10.00 500,000
2007-05-10 Leininger James R Md Sale 123,900 49.04 6,076,056
2007-05-09 Leininger James R Md Sale 94,800 49.70 4,711,560
2007-04-09 Dollens Ronald W (Chairman of the Board) Sale 40,000 54.72 2,188,800
2007-04-09 Dollens Ronald W (Chairman of the Board) Option Ex 71,867 4.81 345,680
2007-02-28 Landon Martin J (Senior Vice President and CFO) Sale 200 49.75 9,950
2007-02-23 Leininger James R Md Sale 14,600 50.60 738,760
2007-02-22 Leininger James R Md Sale 10,900 51.03 556,227
2007-02-21 Leininger James R Md Sale 138,300 51.03 7,057,449
2007-02-05 Fashek Christopher M (Vice Chairman, KCI USA) Sale 94,364 49.51 4,671,961
2007-02-05 Landon Martin J (Senior Vice President and CFO) Sale 30,000 49.11 1,473,300
2007-02-05 Landon Martin J (Senior Vice President and CFO) Option Ex 30,000 8.50 255,000
2007-02-05 Leininger James R Md Sale 120,900 49.20 5,948,280
2007-02-02 Leininger James R Md Sale 79,100 48.78 3,858,498
2006-12-04 Landon Martin J (Vice President and CFO) Sale 20,000 37.00 740,000
2006-12-04 Landon Martin J (Vice President and CFO) Option Ex 20,000 10.00 200,000
2006-12-01 Ware Dennert O Sale 150,000 35.69 5,353,500
2006-12-01 Ware Dennert O Option Ex 150,000 4.81 721,499
2006-11-29 Ware Dennert O Sale 200,000 35.63 7,126,000
2006-11-08 Ware Dennert O Sale 11,000 33.80 371,799
2006-11-07 Ware Dennert O Sale 88,100 33.86 2,983,066
2006-11-06 Ware Dennert O Sale 100,900 34.12 3,442,707
2006-11-01 Ware Dennert O (Director, President and CEO) Sale 300,000 34.58 10,374,000
2006-11-01 Ware Dennert O (Director, President and CEO) Option Ex 300,000 4.81 1,442,999
2006-11-01 Landon Martin J (Vice President and CFO) Sale 30,000 34.58 1,037,400
2006-11-01 Landon Martin J (Vice President and CFO) Option Ex 30,000 10.00 300,000
2006-10-31 Sly Lynne (President, Thera. Surfaces) Sale 35,000 34.76 1,216,600
2006-10-31 Sly Lynne (President, Thera. Surfaces) Option Ex 35,000 4.81 168,350
2006-10-31 Ware Dennert O (Director, President and CEO) Option Ex 343,445 4.81 1,651,970
2006-10-31 Rush G Frederick (Retired V.P. Corp. Dev.) Sale 100,000 34.75 3,475,000
2006-10-31 Rush G Frederick (Retired V.P. Corp. Dev.) Option Ex 273,429 4.81 1,315,193
2006-08-31 Menten Jorg W (President, KCI International) Sale 24,423 31.04 758,089
2006-08-31 Menten Jorg W (President, KCI International) Option Ex 50,000 4.81 240,499
2006-08-30 Ware Dennert O (Director, President and CEO) Sale 300,000 31.12 9,336,000
2006-08-30 Ware Dennert O (Director, President and CEO) Option Ex 1,000,000 4.81 4,810,000
2006-08-11 Smith Tom Buy 5,000 27.86 139,300
2006-05-12 Menten Jorg W (President, KCI International) Sale 9,325 40.32 375,984
2006-05-12 Menten Jorg W (President, KCI International) Option Ex 20,000 4.81 96,199
2006-05-10 Landon Martin J (Vice President and CFO) Option Ex 10,000 10.00 100,000
2006-05-09 Landon Martin J (Vice President and CFO) Sale 10,000 41.67 416,700
2006-05-09 Landon Martin J (Vice President and CFO) Option Ex 10,000 7.00 70,000
2006-04-03 Ware Dennert O (Director, President and CEO) Sale 200,000 41.16 8,231,999
2006-04-03 Ware Dennert O (Director, President and CEO) Option Ex 200,000 4.81 961,999
2006-02-28 Landon Martin J (Vice President and CFO) Option Ex 30,000 7.00 210,000
2006-02-27 Landon Martin J (Vice President and CFO) Sale 4,000 38.00 152,000
2006-02-27 Landon Martin J (Vice President and CFO) Option Ex 4,000 4.81 19,240
2006-02-10 Ware Dennert O (Director, President) Option Ex 877,255 4.81 4,219,596
2006-02-09 Ware Dennert O (Director, President) Sale 100,000 38.06 3,806,000
2006-02-09 Ware Dennert O (Director, President) Option Ex 100,000 4.81 480,999
2006-02-08 Ware Dennert O (Director, President) Sale 100,000 38.14 3,814,000
2006-02-08 Ware Dennert O (Director, President) Option Ex 100,000 4.81 480,999
2005-11-04 Cashman Christopher M (President, Thera. Su) Buy 2,500 37.64 94,100
2005-08-31 Leininger James R Md Sale 125,600 55.59 6,982,480

Insider trading activities including stock purchases, stock sales, and option exercises of KCI listed in the above tables cannot be completely guaranteed as to their accuracy. For more insider trading information of Kinetic Concepts Inc /tx/ (symbol KCI, CIK number 831967) see the Securities and Exchange Commission (SEC) website.